Wolgastern — CQLH — position and weather

sailwx.info

Track history (hours):
 
Tides and Currents Weather Stations Pressure Air Temp Water Temp Dewpoint Dewpoint Depression Visibility Wind Speed Wind Dir Waves Ship Positions

Wolgastern

Last reported at 2017-Jun-23 18:35 UTC. Time now 2017-Jun-28 20:53 UTC.
Position N 40°13' W 009°51'.

Length 162 m; draft 6.5 m.

Type: Tanker. MMSI: 255804950.

Date/timePositionNaut miles runAvg speedWind from/ knotsBaromVisibWave heightAir tempDewpointWater temp
2017-Jun-23 18:35N 40°13' W 009°51'3112.3
2017-Jun-23 16:06N 40°01' W 009°14'1 4.7
2017-Jun-23 16:00N 40°01' W 009°14'1 1.4
2017-Jun-23 15:30N 40°02' W 009°14'1 1.2
2017-Jun-23 15:00N 40°02' W 009°15'1 1.2
2017-Jun-23 14:00N 40°03' W 009°16'23 0.8
2017-Jun-22 10:41N 40°15' W 009°41'0 0.7
2017-Jun-22 10:24N 40°15' W 009°42'0 0.7
2017-Jun-22 10:00N 40°15' W 009°42'20 5.2
2017-Jun-22 06:05N 40°15' W 009°15'6 0.9
2017-Jun-21 23:37N 40°21' W 009°17'0 0.4
2017-Jun-21 23:30N 40°21' W 009°17'0 0.5
2017-Jun-21 22:45N 40°21' W 009°18'13 0.5
2017-Jun-20 21:30N 40°31' W 009°29'0 0.3
2017-Jun-20 21:00N 40°31' W 009°29'1 0.2
2017-Jun-20 18:33N 40°31' W 009°30'0 0.4
2017-Jun-20 18:01N 40°31' W 009°30'0 0.4
2017-Jun-20 18:00N 40°31' W 009°30'1 0.5
2017-Jun-20 16:54N 40°32' W 009°30'0 0.4
2017-Jun-20 16:30N 40°32' W 009°31'1 0.6
2017-Jun-20 15:10N 40°32' W 009°30'0 1.1
2017-Jun-20 15:00N 40°33' W 009°30'1 1.0
2017-Jun-20 13:55N 40°34' W 009°30'1 0.9
2017-Jun-20 12:58N 40°34' W 009°29'0 0.7
2017-Jun-20 12:30N 40°35' W 009°29'0 0.6
2017-Jun-20 12:00N 40°35' W 009°29'0 0.7
2017-Jun-20 11:30N 40°35' W 009°29'0 0.7
2017-Jun-20 11:00N 40°36' W 009°29'0 0.7
2017-Jun-20 10:30N 40°36' W 009°29'2 0.5
2017-Jun-20 07:01N 40°37' W 009°30'0 0.0
2017-Jun-20 07:00N 40°37' W 009°30'0 0.1
2017-Jun-20 06:19N 40°37' W 009°30'0 0.2
2017-Jun-20 05:51N 40°37' W 009°30'0 0.3
2017-Jun-20 05:30N 40°37' W 009°30'0 0.4
2017-Jun-20 05:00N 40°37' W 009°30'0 0.4
2017-Jun-20 04:30N 40°37' W 009°30'4 0.4
2017-Jun-19 20:08N 40°40' W 009°28'0 1.3
2017-Jun-19 20:00N 40°40' W 009°28'1 1.2
2017-Jun-19 19:30N 40°41' W 009°28'15 1.3
2017-Jun-19 07:33N 40°40' W 009°08'113.1
2017-Jun-19 07:30N 40°40' W 009°07'713.2
2017-Jun-19 07:00N 40°39' W 008°59'612.1
2017-Jun-19 06:30N 40°38' W 008°51'5 8.9
2017-Jun-19 05:57N 40°39' W 008°44'1 0.1
2017-Jun-18 17:14N 40°39' W 008°43'0 0.0
2017-Jun-18 11:20N 40°39' W 008°43'0 0.0
2017-Jun-18 10:56N 40°39' W 008°43'0 0.0
2017-Jun-18 10:26N 40°39' W 008°43'0 0.0
2017-Jun-17 19:02N 40°39' W 008°43'0 0.0
2017-Jun-17 18:56N 40°39' W 008°43'0 0.0
2017-Jun-17 08:42N 40°39' W 008°43'3 4.8
2017-Jun-17 08:03N 40°38' W 008°47'0 3.4
2017-Jun-17 08:00N 40°38' W 008°47'0 0.9
2017-Jun-17 07:31N 40°38' W 008°48'0 0.8
2017-Jun-17 06:58N 40°39' W 008°48'0 0.6
2017-Jun-17 06:20N 40°39' W 008°48'0 0.7
2017-Jun-17 06:01N 40°39' W 008°48'0 0.8
2017-Jun-17 05:30N 40°39' W 008°49'4 7.0
2017-Jun-17 04:57N 40°40' W 008°54'510.1
2017-Jun-17 04:25N 40°44' W 008°57'510.8
2017-Jun-17 04:00N 40°49' W 008°60'611.4
2017-Jun-17 03:30N 40°54' W 009°03'612.3
2017-Jun-17 03:00N 40°59' W 009°06'612.2
2017-Jun-17 02:30N 41°05' W 009°10'612.4
2017-Jun-17 02:01N 41°10' W 009°13'612.5
2017-Jun-17 01:30N 41°16' W 009°16'1712.6
2017-Jun-17 00:10N 41°31' W 009°26'1112.7
2017-Jun-16 23:18N 41°41' W 009°32'412.4
2017-Jun-16 23:00N 41°45' W 009°34'235 8.1
2017-Jun-15 18:00N 43°45' W 004°59'  
Track history (hours):
 
Tides and Currents Weather Stations Pressure Air Temp Water Temp Dewpoint Dewpoint Depression Visibility Wind Speed Wind Dir Waves Ship Positions

Wolgastern

Last reported at 2017-Jun-23 18:35 UTC. Time now 2017-Jun-28 20:53 UTC.
Position N 40°13' W 009°51'.

Length 162 m; draft 6.5 m.

Type: Tanker. MMSI: 255804950.

Date/timePositionNaut miles runAvg speedWind from/ knotsBaromVisibWave heightAir tempDewpointWater temp
2017-Jun-23 18:35N 40°13' W 009°51'3112.3
2017-Jun-23 16:06N 40°01' W 009°14'1 4.7
2017-Jun-23 16:00N 40°01' W 009°14'1 1.4
2017-Jun-23 15:30N 40°02' W 009°14'1 1.2
2017-Jun-23 15:00N 40°02' W 009°15'1 1.2
2017-Jun-23 14:00N 40°03' W 009°16'23 0.8
2017-Jun-22 10:41N 40°15' W 009°41'0 0.7
2017-Jun-22 10:24N 40°15' W 009°42'0 0.7
2017-Jun-22 10:00N 40°15' W 009°42'20 5.2
2017-Jun-22 06:05N 40°15' W 009°15'6 0.9
2017-Jun-21 23:37N 40°21' W 009°17'0 0.4
2017-Jun-21 23:30N 40°21' W 009°17'0 0.5
2017-Jun-21 22:45N 40°21' W 009°18'13 0.5
2017-Jun-20 21:30N 40°31' W 009°29'0 0.3
2017-Jun-20 21:00N 40°31' W 009°29'1 0.2
2017-Jun-20 18:33N 40°31' W 009°30'0 0.4
2017-Jun-20 18:01N 40°31' W 009°30'0 0.4
2017-Jun-20 18:00N 40°31' W 009°30'1 0.5
2017-Jun-20 16:54N 40°32' W 009°30'0 0.4
2017-Jun-20 16:30N 40°32' W 009°31'1 0.6
2017-Jun-20 15:10N 40°32' W 009°30'0 1.1
2017-Jun-20 15:00N 40°33' W 009°30'1 1.0
2017-Jun-20 13:55N 40°34' W 009°30'1 0.9
2017-Jun-20 12:58N 40°34' W 009°29'0 0.7
2017-Jun-20 12:30N 40°35' W 009°29'0 0.6
2017-Jun-20 12:00N 40°35' W 009°29'0 0.7
2017-Jun-20 11:30N 40°35' W 009°29'0 0.7
2017-Jun-20 11:00N 40°36' W 009°29'0 0.7
2017-Jun-20 10:30N 40°36' W 009°29'2 0.5
2017-Jun-20 07:01N 40°37' W 009°30'0 0.0
2017-Jun-20 07:00N 40°37' W 009°30'0 0.1
2017-Jun-20 06:19N 40°37' W 009°30'0 0.2
2017-Jun-20 05:51N 40°37' W 009°30'0 0.3
2017-Jun-20 05:30N 40°37' W 009°30'0 0.4
2017-Jun-20 05:00N 40°37' W 009°30'0 0.4
2017-Jun-20 04:30N 40°37' W 009°30'4 0.4
2017-Jun-19 20:08N 40°40' W 009°28'0 1.3
2017-Jun-19 20:00N 40°40' W 009°28'1 1.2
2017-Jun-19 19:30N 40°41' W 009°28'15 1.3
2017-Jun-19 07:33N 40°40' W 009°08'113.1
2017-Jun-19 07:30N 40°40' W 009°07'713.2
2017-Jun-19 07:00N 40°39' W 008°59'612.1
2017-Jun-19 06:30N 40°38' W 008°51'5 8.9
2017-Jun-19 05:57N 40°39' W 008°44'1 0.1
2017-Jun-18 17:14N 40°39' W 008°43'0 0.0
2017-Jun-18 11:20N 40°39' W 008°43'0 0.0
2017-Jun-18 10:56N 40°39' W 008°43'0 0.0
2017-Jun-18 10:26N 40°39' W 008°43'0 0.0
2017-Jun-17 19:02N 40°39' W 008°43'0 0.0
2017-Jun-17 18:56N 40°39' W 008°43'0 0.0
2017-Jun-17 08:42N 40°39' W 008°43'3 4.8
2017-Jun-17 08:03N 40°38' W 008°47'0 3.4
2017-Jun-17 08:00N 40°38' W 008°47'0 0.9
2017-Jun-17 07:31N 40°38' W 008°48'0 0.8
2017-Jun-17 06:58N 40°39' W 008°48'0 0.6
2017-Jun-17 06:20N 40°39' W 008°48'0 0.7
2017-Jun-17 06:01N 40°39' W 008°48'0 0.8
2017-Jun-17 05:30N 40°39' W 008°49'4 7.0
2017-Jun-17 04:57N 40°40' W 008°54'510.1
2017-Jun-17 04:25N 40°44' W 008°57'510.8
2017-Jun-17 04:00N 40°49' W 008°60'611.4
2017-Jun-17 03:30N 40°54' W 009°03'612.3
2017-Jun-17 03:00N 40°59' W 009°06'612.2
2017-Jun-17 02:30N 41°05' W 009°10'612.4
2017-Jun-17 02:01N 41°10' W 009°13'612.5
2017-Jun-17 01:30N 41°16' W 009°16'1712.6
2017-Jun-17 00:10N 41°31' W 009°26'1112.7
2017-Jun-16 23:18N 41°41' W 009°32'412.4
2017-Jun-16 23:00N 41°45' W 009°34'235 8.1
2017-Jun-15 18:00N 43°45' W 004°59'  

Dump ship's entire track history